createdAt,value
2023-01-30T19:19:23.173Z,59.472656
2023-01-30T19:20:24.310Z,59.747314
2023-01-30T19:21:23.087Z,59.320068
2023-01-30T19:22:22.065Z,58.215332
2023-01-30T19:23:21.957Z,57.58667
2023-01-30T19:24:22.048Z,57.25708
2023-01-30T19:25:21.895Z,56.756592
2023-01-30T19:26:21.877Z,56.329346
2023-01-30T19:27:21.913Z,56.329346
2023-01-30T19:28:36.211Z,56.70166
2023-01-30T20:39:38.186Z,59.332275
2023-01-30T20:40:38.122Z,60.235596
2023-01-30T20:41:38.287Z,60.71167
2023-01-30T20:42:38.115Z,60.406494
2023-01-30T20:43:38.119Z,59.204102
2023-01-30T20:44:38.065Z,58.294678
2023-01-30T20:45:38.046Z,57.995605
2023-01-30T20:46:37.997Z,57.794189
2023-01-30T20:47:38.080Z,57.568359
2023-01-30T20:48:38.060Z,57.4646
2023-01-30T20:49:38.002Z,57.165527
2023-01-30T20:50:38.056Z,58.770752
2023-01-30T20:51:37.993Z,59.075928
2023-01-30T20:52:38.006Z,61.2854
2023-01-30T20:53:37.959Z,57.568359
2023-01-30T20:54:37.924Z,59.246826
2023-01-30T20:55:37.974Z,59.545898
2023-01-30T20:56:37.888Z,59.545898
2023-01-30T20:57:38.034Z,58.71582
2023-01-30T20:58:37.902Z,56.103516
2023-01-30T20:59:37.944Z,56.610107
2023-01-30T21:00:37.876Z,61.425781
2023-01-30T21:01:38.876Z,57.110596
2023-01-30T21:02:37.861Z,57.910156
2023-01-30T21:03:37.892Z,55.102539
2023-01-30T21:04:37.991Z,54.699707
2023-01-30T21:05:37.860Z,54.803467
2023-01-30T21:06:43.189Z,54.803467
2023-01-30T21:07:38.774Z,56.811523
2023-01-30T21:08:37.804Z,56.103516
2023-01-30T21:09:37.932Z,55.603027
2023-01-30T21:10:38.814Z,54.901123
2023-01-30T21:11:37.765Z,55.029297
2023-01-30T21:12:37.744Z,54.925537
2023-01-30T21:13:37.777Z,54.925537
2023-01-30T21:14:37.737Z,55.029297
2023-01-30T21:15:37.765Z,55.126953
2023-01-30T21:16:37.748Z,55.230713
2023-01-30T21:17:37.689Z,55.328369
2023-01-30T21:18:37.687Z,55.328369
2023-01-30T21:19:38.785Z,55.328369
2023-01-30T21:20:38.698Z,55.328369
2023-01-30T21:21:37.624Z,55.529785
2023-01-30T21:22:38.625Z,55.529785
2023-01-30T21:23:37.631Z,55.529785
2023-01-30T21:24:37.630Z,55.529785
2023-01-30T21:25:37.581Z,55.529785
2023-01-30T21:26:37.574Z,55.529785
2023-01-30T21:27:40.199Z,55.633545
2023-01-30T21:28:37.581Z,55.633545
2023-01-30T21:29:37.558Z,55.633545
2023-01-30T21:30:37.751Z,55.633545
2023-01-30T21:31:38.638Z,55.633545
2023-01-30T21:32:37.518Z,55.633545
2023-01-30T21:33:37.512Z,55.633545
2023-01-30T21:34:37.531Z,55.633545
2023-01-30T21:35:37.542Z,55.633545
2023-01-30T21:36:37.550Z,55.731201
2023-01-30T21:37:37.502Z,55.731201
2023-01-30T21:38:37.451Z,55.633545
2023-01-30T21:39:37.474Z,55.731201
2023-01-30T21:40:37.511Z,55.731201
2023-01-30T21:41:37.483Z,55.731201
2023-01-30T21:42:37.384Z,55.731201
2023-01-30T21:43:37.404Z,55.828857
2023-01-30T21:44:37.333Z,55.633545
2023-01-30T21:45:37.364Z,55.731201
2023-01-30T21:46:37.361Z,55.731201
2023-01-30T21:47:38.333Z,55.731201
2023-01-30T21:48:37.468Z,55.633545
2023-01-30T21:49:37.314Z,55.633545
2023-01-30T21:50:38.340Z,55.731201
2023-01-30T21:51:37.305Z,55.731201
2023-01-30T21:52:37.367Z,55.731201
2023-01-30T21:53:37.267Z,55.731201
2023-01-30T21:54:37.276Z,55.633545
2023-01-30T21:55:37.408Z,55.633545
2023-01-30T21:56:37.254Z,55.731201
2023-01-30T21:57:37.228Z,55.828857
2023-01-30T21:58:37.213Z,55.731201
2023-01-30T21:59:37.237Z,55.731201
2023-01-30T22:00:37.327Z,55.731201
2023-01-30T22:01:37.220Z,55.706787
2023-01-30T22:02:37.142Z,55.706787
2023-01-30T22:03:37.191Z,55.706787
2023-01-30T22:04:37.207Z,55.706787
2023-01-30T22:05:37.259Z,55.706787
2023-01-30T22:06:37.239Z,55.731201
2023-01-30T22:07:37.154Z,55.804443
2023-01-30T22:08:37.122Z,55.932617
2023-01-30T22:09:37.123Z,55.828857
2023-01-30T22:10:37.090Z,55.804443
2023-01-30T22:11:37.083Z,55.932617
2023-01-30T22:12:37.060Z,55.932617
2023-01-30T22:13:37.102Z,55.828857
2023-01-30T22:14:37.083Z,55.706787
2023-01-30T22:15:37.043Z,55.804443
2023-01-30T22:16:37.030Z,55.804443
2023-01-30T22:17:36.975Z,55.828857
2023-01-30T22:18:37.001Z,55.828857
2023-01-30T22:19:38.021Z,55.828857
2023-01-30T22:20:36.992Z,55.804443
2023-01-30T22:21:36.943Z,55.804443
2023-01-30T22:22:36.937Z,55.804443
2023-01-30T22:23:36.977Z,55.804443
2023-01-30T22:24:36.919Z,55.804443
2023-01-30T22:25:36.919Z,55.804443
2023-01-30T22:26:37.243Z,55.932617
2023-01-30T22:27:36.889Z,55.804443
2023-01-30T22:28:36.956Z,55.908203
2023-01-30T22:29:36.892Z,55.908203
2023-01-30T22:30:36.839Z,55.908203
2023-01-30T22:31:36.904Z,55.908203
2023-01-30T22:32:36.881Z,55.804443
2023-01-30T22:33:37.828Z,55.804443
2023-01-30T22:34:37.799Z,55.804443
2023-01-30T22:35:36.828Z,55.908203
2023-01-30T22:36:36.822Z,55.804443
2023-01-30T22:37:36.833Z,55.908203
2023-01-30T22:38:36.767Z,55.908203
2023-01-30T22:39:36.804Z,55.908203
2023-01-30T22:40:36.818Z,55.908203
2023-01-30T22:41:36.712Z,56.005859
2023-01-30T22:42:36.795Z,55.908203
2023-01-30T22:43:36.710Z,55.908203
2023-01-30T22:44:36.723Z,55.908203
2023-01-30T22:45:36.669Z,56.005859
2023-01-30T22:46:36.875Z,56.005859
2023-01-30T22:47:36.682Z,56.005859
2023-01-30T22:48:36.658Z,56.005859
2023-01-30T22:49:36.633Z,56.103516
2023-01-30T22:50:36.620Z,56.005859
2023-01-30T22:51:36.653Z,56.005859
2023-01-30T22:52:36.566Z,56.005859
2023-01-30T22:53:36.588Z,56.103516
2023-01-30T22:54:36.703Z,56.103516
2023-01-30T22:55:36.558Z,56.103516
2023-01-30T22:56:36.626Z,56.103516
2023-01-30T22:57:36.537Z,56.103516
2023-01-30T22:58:36.556Z,56.103516
2023-01-30T22:59:36.494Z,56.103516
2023-01-30T23:00:36.557Z,56.103516
2023-01-30T23:01:36.515Z,56.103516
2023-01-30T23:02:36.461Z,56.207275
2023-01-30T23:03:36.506Z,56.103516
2023-01-30T23:04:36.504Z,56.207275
2023-01-30T23:05:36.514Z,56.207275
2023-01-30T23:06:36.457Z,56.103516
2023-01-30T23:07:36.458Z,56.103516
2023-01-30T23:08:36.429Z,56.103516
2023-01-30T23:09:36.404Z,56.103516
2023-01-30T23:10:36.400Z,56.103516
2023-01-30T23:11:36.403Z,56.207275
2023-01-30T23:12:36.370Z,56.103516
2023-01-30T23:13:36.338Z,56.207275
2023-01-30T23:14:36.431Z,56.207275
2023-01-30T23:15:36.396Z,56.207275
2023-01-30T23:16:36.367Z,56.103516
2023-01-30T23:17:36.376Z,56.207275
2023-01-30T23:18:36.279Z,56.103516
2023-01-30T23:19:36.385Z,56.207275
2023-01-30T23:20:36.317Z,56.231689
2023-01-30T23:21:36.335Z,56.231689
2023-01-30T23:22:36.332Z,56.207275
2023-01-30T23:23:36.283Z,56.335449
2023-01-30T23:24:36.274Z,56.335449
2023-01-30T23:25:36.216Z,56.335449
2023-01-30T23:26:36.168Z,56.335449
2023-01-30T23:27:36.273Z,56.433105
2023-01-30T23:28:36.193Z,56.433105
2023-01-30T23:29:36.149Z,56.433105
2023-01-30T23:30:36.216Z,56.433105
2023-01-30T23:31:36.228Z,56.433105
2023-01-30T23:32:36.177Z,56.536865
2023-01-30T23:33:36.137Z,56.536865
2023-01-30T23:34:36.095Z,56.536865
2023-01-30T23:35:36.235Z,56.536865
2023-01-30T23:36:36.084Z,56.536865
2023-01-30T23:37:36.184Z,56.536865
2023-01-30T23:38:36.077Z,56.634521
2023-01-30T23:39:36.065Z,56.634521
2023-01-30T23:40:36.046Z,56.536865
2023-01-30T23:41:36.087Z,56.634521
2023-01-30T23:42:36.137Z,56.738281
2023-01-30T23:43:36.000Z,56.738281
2023-01-30T23:44:35.995Z,56.634521
2023-01-30T23:45:35.989Z,56.738281
2023-01-30T23:46:35.953Z,56.738281
2023-01-30T23:47:35.959Z,56.738281
2023-01-30T23:48:35.983Z,56.835938
2023-01-30T23:49:35.957Z,56.738281
2023-01-30T23:50:35.956Z,56.835938
2023-01-30T23:51:35.984Z,56.738281
2023-01-30T23:52:35.923Z,56.835938
2023-01-30T23:53:35.909Z,56.835938
2023-01-30T23:54:35.900Z,56.835938
2023-01-30T23:55:35.921Z,56.835938
2023-01-30T23:56:35.867Z,56.835938
2023-01-30T23:57:35.886Z,56.933594
2023-01-30T23:58:35.861Z,56.835938
2023-01-30T23:59:35.886Z,56.835938
